Belmont (Lincoln), NE

12:13 AM CST on December 06, 2016 (GMT -0600)
| | Change Station

Elev -9999 ft 0.00 °N, 0.00 °E | Updated

Overcast
Overcast
°F
Feels Like °F
N
Wind Variable Wind from North
Gusts mph

Today
High -- | Low -- °F
--% Chance of Precip.
Yesterday
High -- | Low -- °F
Precip. -- in
Pressure 29.92 in
Visibility 10.0 miles
Clouds Overcast 9000 ft
Dew Point Not available.
Humidity Not available.
Rainfall --
Snow Depth Not available.
7:37 AM 4:58 PM
Waxing Crescent, 38% visible
METAR KLNK 060554Z AUTO 34019G28KT 10SM OVC090 00/M06 A2990 RMK AO2 PK WND 33033/0530 SLP131 60000 T00001061 10078 20000 401171017 51035
Pressure 29.92 in
Visibility 10.0 miles
Clouds Overcast 9000 ft
Dew Point Not available.
Humidity Not available.
Rainfall --
Snow Depth Not available.
7:37 AM 4:58 PM
Waxing Crescent, 38% visible
METAR KLNK 060554Z AUTO 34019G28KT 10SM OVC090 00/M06 A2990 RMK AO2 PK WND 33033/0530 SLP131 60000 T00001061 10078 20000 401171017 51035

10-Day Weather Forecast

Almanac

Astronomy

Dec. 06, 2016 Rise Set
Actual Time
Civil Twilight
Nautical Twilight
Astronomical Twilight
Moon
Length of Visible Light
Length of Day
Tomorrow will be .
, % of the Moon is Illuminated

Today's Extremes

State Highs State Lows

Community

WunderPhotos

Upload Photos

1,955,931 photos uploaded!

WunderBlog® & News

Nearby

Air Quality

  Air Quality AQ Index Pollutant
Not available.

Snow Depth

Station Depth Elevation

Earthquake Activity

City Distance Mag. Time & Date
Minimum magnitude displayed is 2.5.

Coastal Water Temperatures

Place Temperature

Stations

Nearby Weather Stations

Station Location Temp. Windchill Dew Point Humidity Wind Precip. Elev Updated Type
                   

Watches & Warnings

There are currently no watches in effect.